Time;durP1;ratioP1;P1;durP2;ratioP2;P2;SDS_P1;SDS_P2;PMS_P1;PMS_P2;Temp;Humidity;BMP_temperature;BMP_pressure;BME280_temperature;BME280_humidity;BME280_pressure;Samples;Min_cycle;Max_cycle;Signal;HPM_P1;HPM_P2
2022/03/24 00:01:34;;;;;;;96.60;49.28;;;6.10;99.90;;;;;;5036203;28;20085;-79
2022/03/24 00:03:59;;;;;;;98.05;48.97;;;6.10;99.90;;;;;;5036329;28;20038;-79
2022/03/24 00:06:25;;;;;;;87.55;46.65;;;6.10;99.90;;;;;;5036187;28;20057;-79
2022/03/24 00:08:51;;;;;;;89.15;46.28;;;6.10;99.90;;;;;;5036259;28;20087;-79
2022/03/24 00:11:17;;;;;;;97.72;49.25;;;6.10;99.90;;;;;;5018711;28;20504;-78
2022/03/24 00:13:43;;;;;;;100.82;50.00;;;6.10;99.90;;;;;;5036107;28;20061;-78
2022/03/24 00:16:09;;;;;;;100.78;50.58;;;6.10;99.90;;;;;;5018080;28;20092;-78
2022/03/24 00:18:35;;;;;;;100.03;50.50;;;6.20;99.90;;;;;;5036022;28;20034;-79
2022/03/24 00:21:01;;;;;;;97.20;49.10;;;6.30;99.90;;;;;;5035828;28;20049;-78
2022/03/24 00:23:27;;;;;;;103.68;51.45;;;6.30;99.90;;;;;;5035927;28;20033;-78
2022/03/24 00:25:54;;;;;;;97.72;51.03;;;6.40;99.90;;;;;;5035854;28;20063;-78
2022/03/24 00:28:20;;;;;;;103.78;51.58;;;6.50;99.90;;;;;;5035708;28;20052;-79
2022/03/24 00:30:45;;;;;;;97.88;51.30;;;6.50;99.90;;;;;;5018179;28;20041;-79
2022/03/24 00:33:12;;;;;;;95.72;49.92;;;6.60;99.90;;;;;;5035647;28;20047;-78
2022/03/24 00:35:38;;;;;;;92.40;45.97;;;6.60;99.90;;;;;;5035745;28;20127;-79
2022/03/24 00:38:05;;;;;;;92.65;49.53;;;6.60;99.90;;;;;;5018091;28;20481;-78
2022/03/24 00:40:32;;;;;;;87.68;46.13;;;6.60;99.90;;;;;;5035061;28;20041;-79
2022/03/24 00:42:59;;;;;;;88.53;46.40;;;6.60;99.90;;;;;;5017648;28;20046;-79
2022/03/24 00:45:25;;;;;;;103.57;51.22;;;6.60;99.90;;;;;;5035532;28;20091;-79
2022/03/24 00:47:51;;;;;;;89.00;46.28;;;6.60;99.90;;;;;;5017753;28;20049;-79
2022/03/24 00:50:18;;;;;;;90.15;49.00;;;6.60;99.90;;;;;;5035403;28;20102;-79
2022/03/24 00:52:45;;;;;;;96.00;48.58;;;6.70;99.90;;;;;;5035374;28;20041;-79
2022/03/24 00:55:19;;;;;;;95.07;48.75;;;6.80;99.90;;;;;;5035137;28;20045;-79
2022/03/24 00:57:50;;;;;;;103.05;52.65;;;6.80;99.90;;;;;;5017748;28;20057;-79
2022/03/24 01:00:19;;;;;;;106.03;50.47;;;7.00;99.90;;;;;;5017462;28;20048;-79
2022/03/24 01:02:48;;;;;;;108.82;53.90;;;7.00;99.90;;;;;;5017687;28;20134;-79
2022/03/24 01:05:15;;;;;;;103.57;51.53;;;7.00;99.90;;;;;;5035069;28;20172;-79
2022/03/24 01:07:45;;;;;;;100.82;50.50;;;7.00;99.90;;;;;;5035032;28;20052;-79
2022/03/24 01:10:15;;;;;;;93.10;48.47;;;7.00;99.90;;;;;;5035091;28;20041;-79
2022/03/24 01:12:41;;;;;;;86.28;47.55;;;7.00;99.90;;;;;;5017402;28;20050;-79
2022/03/24 01:15:09;;;;;;;103.25;50.08;;;6.90;99.90;;;;;;5034839;28;20128;-79
2022/03/24 01:17:35;;;;;;;100.53;50.28;;;6.90;99.90;;;;;;5034953;28;20049;-79
2022/03/24 01:20:01;;;;;;;100.50;49.25;;;6.90;99.90;;;;;;5034797;28;20046;-79
2022/03/24 01:22:27;;;;;;;100.47;50.17;;;6.90;99.90;;;;;;5034844;28;20037;-79
2022/03/24 01:24:53;;;;;;;93.25;49.40;;;7.00;99.90;;;;;;5000883;28;20513;-79
2022/03/24 01:27:19;;;;;;;95.72;49.85;;;6.90;99.90;;;;;;5034816;28;20512;-79
2022/03/24 01:29:44;;;;;;;94.40;46.85;;;6.90;99.90;;;;;;5034569;28;20049;-79
2022/03/24 01:32:10;;;;;;;94.05;49.20;;;6.90;99.90;;;;;;5034607;28;20052;-79
2022/03/24 01:34:37;;;;;;;100.63;51.03;;;7.00;99.90;;;;;;5034561;28;20096;-79
2022/03/24 01:37:05;;;;;;;90.13;47.65;;;6.90;99.90;;;;;;5016622;28;20045;-79
2022/03/24 01:39:32;;;;;;;85.93;46.05;;;6.80;99.90;;;;;;5034232;28;20393;-79
2022/03/24 01:42:00;;;;;;;86.68;46.72;;;6.80;99.90;;;;;;5034406;28;20052;-79
2022/03/24 01:44:27;;;;;;;91.45;46.15;;;6.70;99.90;;;;;;5034373;28;20116;-79
2022/03/24 01:46:59;;;;;;;80.63;42.90;;;6.80;99.90;;;;;;5034350;28;20057;-79
2022/03/24 01:49:30;;;;;;;79.88;44.50;;;6.70;99.90;;;;;;5034046;28;20500;-79
2022/03/24 01:51:56;;;;;;;82.47;44.40;;;6.60;99.90;;;;;;5016260;28;20080;-79
2022/03/24 01:54:23;;;;;;;85.22;44.30;;;6.50;99.90;;;;;;5033579;28;20104;-79
2022/03/24 01:56:50;;;;;;;75.13;41.65;;;6.50;99.90;;;;;;5016123;28;20504;-79
2022/03/24 01:59:17;;;;;;;83.68;43.78;;;6.50;99.90;;;;;;5016770;28;20481;-79
2022/03/24 02:01:43;;;;;;;83.15;44.10;;;6.60;99.90;;;;;;5033915;28;20041;-79
2022/03/24 02:04:10;;;;;;;83.35;44.83;;;6.60;99.90;;;;;;5033937;28;20125;-79
2022/03/24 02:06:36;;;;;;;82.90;46.40;;;6.70;99.90;;;;;;5016434;28;20449;-79
2022/03/24 02:09:03;;;;;;;80.65;42.65;;;6.50;99.90;;;;;;5034030;28;20042;-79
2022/03/24 02:11:30;;;;;;;80.05;43.85;;;6.40;99.90;;;;;;5016509;28;20512;-79
2022/03/24 02:13:57;;;;;;;89.18;47.85;;;6.40;99.90;;;;;;5033890;28;20043;-79
2022/03/24 02:16:27;;;;;;;86.65;46.25;;;6.30;99.90;;;;;;5033767;28;20095;-79
2022/03/24 02:18:59;;;;;;;94.15;48.80;;;6.50;99.90;;;;;;5016319;28;20072;-79
2022/03/24 02:21:26;;;;;;;84.80;43.47;;;6.50;99.90;;;;;;5033847;28;20124;-79
2022/03/24 02:23:52;;;;;;;82.25;45.90;;;6.50;99.90;;;;;;5033815;28;20036;-79
2022/03/24 02:26:18;;;;;;;87.55;44.35;;;6.40;99.90;;;;;;5033764;28;20049;-79
2022/03/24 02:28:47;;;;;;;76.03;41.78;;;6.30;99.90;;;;;;5033711;28;20434;-79
2022/03/24 02:31:13;;;;;;;82.78;43.92;;;6.20;99.90;;;;;;5033463;28;20479;-79
2022/03/24 02:33:39;;;;;;;77.07;43.75;;;6.20;99.90;;;;;;5033850;28;20524;-79
2022/03/24 02:36:06;;;;;;;77.75;42.03;;;6.10;99.90;;;;;;5015728;28;20056;-79
2022/03/24 02:38:33;;;;;;;75.32;42.92;;;6.00;99.90;;;;;;5033642;28;20046;-79
2022/03/24 02:40:59;;;;;;;74.30;42.67;;;5.90;99.90;;;;;;5016146;28;20072;-79
2022/03/24 02:43:25;;;;;;;75.50;42.45;;;5.90;99.90;;;;;;5015889;28;20388;-79
2022/03/24 02:45:53;;;;;;;69.35;39.38;;;5.90;99.90;;;;;;5015793;28;20045;-79
2022/03/24 02:48:19;;;;;;;77.57;40.97;;;5.90;99.90;;;;;;5033452;28;20056;-79
2022/03/24 02:50:45;;;;;;;75.00;40.75;;;5.80;99.90;;;;;;5033520;28;20099;-79
2022/03/24 02:53:10;;;;;;;71.20;38.80;;;5.80;99.90;;;;;;5015594;28;20057;-79
2022/03/24 02:55:36;;;;;;;69.05;39.45;;;5.70;99.90;;;;;;5015565;28;20049;-79
2022/03/24 02:58:02;;;;;;;72.35;38.75;;;5.60;99.90;;;;;;5015875;28;20056;-79
2022/03/24 03:00:27;;;;;;;77.22;41.30;;;5.60;99.90;;;;;;5033465;28;20041;-79
2022/03/24 03:02:53;;;;;;;74.07;42.00;;;5.50;99.90;;;;;;5015845;28;20427;-79
2022/03/24 03:05:21;;;;;;;77.40;44.45;;;5.50;99.90;;;;;;5018849;28;20535;-79
2022/03/24 03:07:47;;;;;;;80.57;42.85;;;5.40;99.90;;;;;;5037353;28;20052;-79
2022/03/24 03:10:14;;;;;;;73.22;40.38;;;5.40;99.90;;;;;;5019851;28;20049;-79
2022/03/24 03:12:44;;;;;;;83.28;42.75;;;5.40;99.90;;;;;;5019293;28;20053;-79
2022/03/24 03:15:10;;;;;;;80.53;43.55;;;5.40;99.90;;;;;;5037680;28;20049;-78
2022/03/24 03:17:37;;;;;;;77.50;42.22;;;5.30;99.90;;;;;;5019613;28;20099;-79
2022/03/24 03:20:05;;;;;;;84.45;43.47;;;5.20;99.90;;;;;;5019420;28;20400;-79
2022/03/24 03:22:32;;;;;;;82.15;42.80;;;5.20;99.90;;;;;;5019469;28;20480;-79
2022/03/24 03:24:59;;;;;;;84.22;42.70;;;5.20;99.90;;;;;;5019216;28;20049;-78
2022/03/24 03:27:26;;;;;;;80.55;43.80;;;5.20;99.90;;;;;;5019119;28;20049;-79
2022/03/24 03:29:52;;;;;;;80.47;43.30;;;5.20;99.90;;;;;;5036948;28;20045;-79
2022/03/24 03:32:20;;;;;;;75.47;40.00;;;5.30;99.90;;;;;;5018885;28;20045;-79
2022/03/24 03:34:46;;;;;;;88.22;45.88;;;5.20;99.90;;;;;;5028621;28;20045;-79
2022/03/24 03:37:12;;;;;;;88.03;44.67;;;5.30;99.90;;;;;;5019016;28;20103;-79
2022/03/24 03:39:38;;;;;;;95.32;49.10;;;5.30;99.90;;;;;;5036515;28;20041;-79
2022/03/24 03:42:04;;;;;;;84.43;43.30;;;5.30;99.90;;;;;;5036711;28;20073;-79
2022/03/24 03:44:30;;;;;;;82.43;43.63;;;5.40;99.90;;;;;;5019063;28;20037;-79
2022/03/24 03:46:56;;;;;;;78.72;42.00;;;5.30;99.90;;;;;;5018519;28;20041;-78
2022/03/24 03:49:22;;;;;;;82.65;42.50;;;5.30;99.90;;;;;;5018684;28;20136;-79
2022/03/24 03:51:48;;;;;;;84.78;44.22;;;5.30;99.90;;;;;;5019018;28;20481;-79
2022/03/24 03:54:15;;;;;;;82.90;42.65;;;5.30;99.90;;;;;;5036335;28;20064;-79
2022/03/24 03:56:41;;;;;;;86.80;43.92;;;5.30;99.90;;;;;;5036296;28;20064;-79
2022/03/24 03:59:07;;;;;;;88.20;45.47;;;5.30;99.90;;;;;;5036382;28;20030;-79
2022/03/24 04:01:33;;;;;;;84.28;42.90;;;5.30;99.90;;;;;;5018542;28;20084;-79
2022/03/24 04:04:00;;;;;;;85.13;44.13;;;5.30;99.90;;;;;;5018534;28;20500;-78
2022/03/24 04:06:26;;;;;;;83.70;42.97;;;5.30;99.90;;;;;;5018442;28;20536;-78
2022/03/24 04:08:51;;;;;;;81.50;43.70;;;5.20;99.90;;;;;;5018540;28;20091;-78
2022/03/24 04:11:17;;;;;;;79.97;42.15;;;5.10;99.90;;;;;;5018271;28;20049;-78
2022/03/24 04:13:43;;;;;;;82.82;43.47;;;5.10;99.90;;;;;;5036040;28;20049;-79
2022/03/24 04:16:13;;;;;;;87.07;44.80;;;5.10;99.90;;;;;;5017358;28;20425;-79
2022/03/24 04:18:44;;;;;;;82.05;41.60;;;5.00;99.90;;;;;;5035955;28;20095;-79
2022/03/24 04:21:11;;;;;;;79.25;42.97;;;5.00;99.90;;;;;;5035935;28;20042;-79
2022/03/24 04:23:38;;;;;;;83.43;43.55;;;5.00;99.90;;;;;;5035986;28;20057;-79
2022/03/24 04:26:04;;;;;;;81.60;45.38;;;5.00;99.90;;;;;;5018061;28;20060;-79
2022/03/24 04:28:30;;;;;;;89.25;47.30;;;4.90;99.90;;;;;;5017982;28;20519;-79
2022/03/24 04:30:55;;;;;;;90.20;46.25;;;4.90;99.90;;;;;;5018002;28;20045;-79
2022/03/24 04:33:21;;;;;;;95.00;49.22;;;4.90;99.90;;;;;;5018292;28;20125;-79
2022/03/24 04:35:47;;;;;;;102.50;52.25;;;4.80;99.90;;;;;;5035346;28;20042;-79
2022/03/24 04:38:14;;;;;;;96.15;48.92;;;4.80;99.90;;;;;;5017774;28;20042;-79
2022/03/24 04:40:40;;;;;;;91.50;47.28;;;4.80;99.90;;;;;;5018137;28;20038;-79
2022/03/24 04:43:06;;;;;;;93.75;49.58;;;4.80;99.90;;;;;;5017762;28;20073;-79
2022/03/24 04:45:33;;;;;;;87.60;45.13;;;4.80;99.90;;;;;;5017993;28;20147;-79
2022/03/24 04:48:01;;;;;;;91.57;46.80;;;4.80;99.90;;;;;;5017842;28;20057;-79
2022/03/24 04:50:27;;;;;;;81.03;43.05;;;4.70;99.90;;;;;;5017937;28;20099;-79
2022/03/24 04:52:52;;;;;;;87.07;45.72;;;4.60;99.90;;;;;;5017787;28;20476;-79
2022/03/24 04:55:18;;;;;;;79.47;43.28;;;4.60;99.90;;;;;;5017232;28;20054;-79
2022/03/24 04:57:44;;;;;;;82.18;43.97;;;4.60;99.90;;;;;;5017735;28;20061;-79
2022/03/24 05:00:11;;;;;;;89.90;46.92;;;4.50;99.90;;;;;;5017474;28;20041;-79
2022/03/24 05:02:37;;;;;;;90.22;46.35;;;4.60;99.90;;;;;;5017711;28;20050;-79
2022/03/24 05:05:04;;;;;;;93.15;45.65;;;4.50;99.90;;;;;;5034905;28;20064;-79
2022/03/24 05:07:29;;;;;;;83.50;42.85;;;4.50;99.90;;;;;;5017461;28;20045;-79
2022/03/24 05:09:55;;;;;;;82.00;44.30;;;4.50;99.90;;;;;;5017247;28;20048;-78
2022/03/24 05:12:20;;;;;;;80.40;43.03;;;4.40;99.90;;;;;;5035009;28;20052;-78
2022/03/24 05:14:46;;;;;;;79.35;42.95;;;4.40;99.90;;;;;;5017256;28;20048;-78
2022/03/24 05:17:12;;;;;;;80.97;42.13;;;4.30;99.90;;;;;;5017083;28;20040;-78
2022/03/24 05:19:39;;;;;;;82.38;43.55;;;4.30;99.90;;;;;;5034689;28;20400;-78
2022/03/24 05:22:05;;;;;;;83.88;43.65;;;4.30;99.90;;;;;;5016537;28;20122;-78
2022/03/24 05:24:31;;;;;;;92.53;45.75;;;4.30;99.90;;;;;;5034163;28;20089;-79
2022/03/24 05:26:57;;;;;;;96.82;47.90;;;4.20;99.90;;;;;;5015959;28;20516;-78
2022/03/24 05:29:23;;;;;;;87.05;42.83;;;4.30;99.90;;;;;;5016654;28;20527;-78
2022/03/24 05:31:48;;;;;;;85.65;43.70;;;4.20;99.90;;;;;;5016572;28;20046;-79
2022/03/24 05:34:14;;;;;;;94.47;44.05;;;4.20;99.90;;;;;;5016839;28;20050;-78
2022/03/24 05:36:39;;;;;;;94.13;47.80;;;4.20;99.90;;;;;;5016559;28;20041;-78
2022/03/24 05:39:05;;;;;;;92.85;46.20;;;4.20;99.90;;;;;;5016941;28;20124;-78
2022/03/24 05:41:31;;;;;;;80.90;41.80;;;4.30;99.90;;;;;;5034370;28;20067;-79
2022/03/24 05:44:02;;;;;;;82.32;41.95;;;4.30;99.90;;;;;;5034616;28;20107;-79
2022/03/24 05:46:33;;;;;;;82.97;43.13;;;4.20;99.90;;;;;;5016720;28;20081;-79
2022/03/24 05:48:58;;;;;;;85.07;44.22;;;4.10;99.90;;;;;;5016317;28;20049;-79
2022/03/24 05:51:25;;;;;;;87.13;44.03;;;4.20;99.90;;;;;;5016535;28;20057;-78
2022/03/24 05:53:51;;;;;;;101.95;49.47;;;4.10;99.90;;;;;;5016123;28;20057;-79
2022/03/24 05:56:16;;;;;;;97.88;48.92;;;4.20;99.90;;;;;;5033983;28;20053;-79
2022/03/24 05:58:42;;;;;;;105.65;49.53;;;4.30;99.90;;;;;;5016546;28;20042;-79
2022/03/24 06:01:09;;;;;;;110.38;52.47;;;4.50;99.90;;;;;;5016069;28;20409;-78
2022/03/24 06:03:36;;;;;;;120.82;52.95;;;4.60;99.90;;;;;;5016663;28;20052;-78
2022/03/24 06:06:03;;;;;;;112.20;52.60;;;4.70;99.90;;;;;;5034077;28;20041;-79
2022/03/24 06:08:30;;;;;;;111.85;52.92;;;4.90;99.90;;;;;;5016360;28;20107;-79
2022/03/24 06:10:57;;;;;;;118.95;53.45;;;5.00;99.90;;;;;;5033676;28;20045;-78
2022/03/24 06:13:23;;;;;;;124.88;57.08;;;5.10;99.90;;;;;;5033899;28;20042;-78
2022/03/24 06:15:50;;;;;;;116.03;51.90;;;5.30;99.90;;;;;;5033709;28;20095;-79
2022/03/24 06:18:17;;;;;;;112.50;52.65;;;5.40;99.90;;;;;;5034088;28;20099;-79
2022/03/24 06:20:46;;;;;;;108.93;51.13;;;5.50;99.90;;;;;;5033815;28;20037;-79
2022/03/24 06:23:12;;;;;;;104.25;50.33;;;5.60;99.90;;;;;;5033768;28;20172;-79
2022/03/24 06:25:38;;;;;;;111.03;52.55;;;5.70;99.90;;;;;;5033717;28;20041;-79
2022/03/24 06:28:05;;;;;;;119.28;54.95;;;5.80;99.90;;;;;;5015924;28;20522;-78
2022/03/24 06:30:31;;;;;;;125.00;59.80;;;5.90;99.90;;;;;;5033686;28;20053;-79
2022/03/24 06:32:57;;;;;;;121.20;57.50;;;6.10;99.90;;;;;;5015998;28;20053;-78
2022/03/24 06:35:23;;;;;;;132.40;61.90;;;6.10;99.90;;;;;;5033461;28;20042;-79
2022/03/24 06:37:50;;;;;;;134.07;60.78;;;6.20;99.90;;;;;;5033315;28;20045;-79
2022/03/24 06:40:17;;;;;;;133.10;59.25;;;6.40;99.90;;;;;;5015203;28;20064;-78
2022/03/24 06:42:43;;;;;;;127.85;61.67;;;6.50;99.90;;;;;;5033303;28;20104;-78
2022/03/24 06:45:10;;;;;;;137.02;64.05;;;6.50;99.90;;;;;;5015551;28;20041;-78
2022/03/24 06:47:37;;;;;;;132.80;61.33;;;6.70;99.90;;;;;;5015611;28;20043;-78
2022/03/24 06:50:04;;;;;;;142.65;64.65;;;6.80;99.90;;;;;;5033394;28;20080;-78
2022/03/24 06:52:29;;;;;;;132.63;61.42;;;6.90;99.90;;;;;;5033145;28;20460;-79
2022/03/24 06:54:55;;;;;;;125.68;58.78;;;7.00;99.90;;;;;;5033061;28;20092;-79
2022/03/24 06:57:21;;;;;;;126.35;60.28;;;7.10;99.90;;;;;;5032926;28;20144;-79
2022/03/24 06:59:47;;;;;;;128.40;61.72;;;7.20;99.90;;;;;;5033409;28;20034;-79
2022/03/24 07:02:12;;;;;;;132.88;62.80;;;7.30;99.90;;;;;;5015772;28;20041;-79
2022/03/24 07:04:38;;;;;;;122.57;62.58;;;7.40;99.90;;;;;;5033427;28;20049;-78
2022/03/24 07:07:04;;;;;;;116.03;58.25;;;7.50;99.90;;;;;;5033329;28;20053;-78
2022/03/24 07:09:30;;;;;;;114.38;57.78;;;7.60;99.90;;;;;;5015661;28;20045;-78
2022/03/24 07:11:56;;;;;;;120.07;59.20;;;7.70;99.90;;;;;;5015737;28;20042;-76
2022/03/24 07:14:22;;;;;;;118.47;59.13;;;7.80;99.90;;;;;;5015259;28;20128;-78
2022/03/24 07:16:48;;;;;;;114.50;59.30;;;7.90;99.90;;;;;;5015232;28;20128;-79
2022/03/24 07:19:14;;;;;;;107.43;58.05;;;8.10;99.90;;;;;;5033218;28;20119;-78
2022/03/24 07:21:40;;;;;;;110.95;58.88;;;8.20;99.90;;;;;;5015713;28;20041;-78
2022/03/24 07:24:06;;;;;;;116.75;58.58;;;8.30;99.90;;;;;;5015535;28;20080;-78
2022/03/24 07:26:32;;;;;;;109.00;57.28;;;8.40;99.90;;;;;;5015385;28;20144;-77
2022/03/24 07:28:58;;;;;;;99.45;52.67;;;8.50;99.90;;;;;;5032867;28;20077;-78
2022/03/24 07:31:24;;;;;;;99.70;54.83;;;8.60;99.90;;;;;;5015149;28;20049;-77
2022/03/24 07:33:53;;;;;;;103.63;57.40;;;8.70;99.90;;;;;;5032908;28;20041;-78
2022/03/24 07:36:22;;;;;;;99.30;54.25;;;8.80;99.90;;;;;;5033008;28;20045;-78
2022/03/24 07:38:51;;;;;;;98.25;53.10;;;8.90;99.90;;;;;;5032985;28;20099;-78
2022/03/24 07:41:17;;;;;;;97.45;53.42;;;9.00;99.90;;;;;;5033074;28;20050;-80
2022/03/24 07:43:43;;;;;;;102.18;54.05;;;9.10;99.90;;;;;;5033004;28;20079;-78
2022/03/24 07:46:09;;;;;;;98.10;52.38;;;9.20;99.90;;;;;;5015456;28;20053;-78
2022/03/24 07:48:34;;;;;;;94.85;51.40;;;9.30;99.90;;;;;;5015029;28;20132;-78
2022/03/24 07:51:00;;;;;;;99.97;52.03;;;9.50;99.90;;;;;;5033898;28;20046;-79
2022/03/24 07:53:48;;;;;;;93.30;49.72;;;9.60;99.90;;;;;;5036117;28;20049;-78
2022/03/24 07:56:16;;;;;;;89.38;50.38;;;9.70;99.90;;;;;;5018523;28;20050;-78
2022/03/24 07:58:41;;;;;;;86.13;46.97;;;9.90;99.90;;;;;;5018829;28;20061;-79
2022/03/24 08:01:08;;;;;;;88.55;48.92;;;10.00;99.90;;;;;;5036270;28;20119;-79
2022/03/24 08:03:34;;;;;;;86.93;46.55;;;10.10;99.90;;;;;;5036286;28;20116;-78
2022/03/24 08:06:02;;;;;;;90.60;47.53;;;10.20;99.90;;;;;;5018271;28;20129;-78
2022/03/24 08:08:28;;;;;;;87.30;47.95;;;10.30;99.90;;;;;;5018493;28;20124;-78
2022/03/24 08:10:54;;;;;;;83.53;47.75;;;10.40;99.90;;;;;;5035933;28;20497;-79
2022/03/24 08:13:21;;;;;;;81.72;46.70;;;10.50;99.90;;;;;;5018414;28;20041;-79
2022/03/24 08:15:48;;;;;;;88.30;48.78;;;10.70;99.90;;;;;;5018177;28;20501;-79
2022/03/24 08:18:15;;;;;;;88.72;51.65;;;10.60;99.90;;;;;;5018058;28;20042;-79
2022/03/24 08:20:42;;;;;;;90.10;51.58;;;10.70;99.90;;;;;;5035951;28;20049;-79
2022/03/24 08:23:09;;;;;;;83.32;46.42;;;10.90;99.90;;;;;;5035947;28;20037;-79
2022/03/24 08:25:36;;;;;;;84.22;47.45;;;11.00;99.90;;;;;;5018180;28;20042;-79
2022/03/24 08:28:02;;;;;;;91.95;48.67;;;11.00;99.90;;;;;;5035777;28;20046;-79
2022/03/24 08:30:28;;;;;;;84.40;48.17;;;11.10;99.90;;;;;;5017844;28;20084;-79
2022/03/24 08:32:54;;;;;;;81.78;47.75;;;11.20;99.90;;;;;;5017814;28;20508;-79
2022/03/24 08:35:20;;;;;;;78.53;45.35;;;11.30;99.90;;;;;;5017698;28;20046;-79
2022/03/24 08:37:45;;;;;;;79.72;46.25;;;11.40;99.90;;;;;;5017656;28;20054;-79
2022/03/24 08:40:12;;;;;;;77.53;45.30;;;11.40;99.90;;;;;;5035538;28;20045;-79
2022/03/24 08:42:39;;;;;;;71.00;43.33;;;11.50;99.90;;;;;;5017643;28;20099;-79
2022/03/24 08:45:06;;;;;;;69.45;40.97;;;11.40;99.90;;;;;;5017509;28;20478;-79
2022/03/24 08:47:32;;;;;;;66.57;41.00;;;11.50;99.90;;;;;;5035249;28;20049;-79
2022/03/24 08:49:58;;;;;;;70.07;43.85;;;11.80;99.90;;;;;;5017783;28;20046;-79
2022/03/24 08:52:25;;;;;;;64.20;40.92;;;11.80;99.90;;;;;;5035344;28;20395;-79
2022/03/24 08:54:51;;;;;;;62.85;39.88;;;11.80;99.90;;;;;;5034969;28;20056;-79
2022/03/24 08:57:17;;;;;;;61.00;37.33;;;11.90;99.90;;;;;;5016998;28;20132;-79
2022/03/24 08:59:42;;;;;;;64.80;38.85;;;11.90;99.90;;;;;;5017604;28;20137;-79
2022/03/24 09:02:08;;;;;;;60.95;38.20;;;11.90;99.90;;;;;;5034813;28;20045;-79
2022/03/24 09:04:34;;;;;;;60.55;39.03;;;11.90;99.90;;;;;;5017089;28;20053;-79
2022/03/24 09:07:00;;;;;;;65.55;39.42;;;11.90;99.90;;;;;;5017283;28;20042;-79
2022/03/24 09:09:26;;;;;;;66.50;38.90;;;12.10;99.90;;;;;;5017320;28;20084;-79
2022/03/24 09:11:52;;;;;;;63.25;39.95;;;12.20;99.90;;;;;;5017012;28;20084;-79
2022/03/24 09:14:19;;;;;;;68.05;41.00;;;12.20;99.90;;;;;;5016952;28;20091;-79
2022/03/24 09:16:44;;;;;;;69.50;41.45;;;12.30;99.90;;;;;;5016840;28;20049;-79
2022/03/24 09:19:12;;;;;;;65.28;39.70;;;12.30;99.90;;;;;;5034795;28;20047;-79
2022/03/24 09:21:38;;;;;;;68.88;41.95;;;12.40;99.90;;;;;;5034623;28;20515;-79
2022/03/24 09:24:04;;;;;;;74.82;42.33;;;12.50;99.90;;;;;;5017065;28;20045;-79
2022/03/24 09:26:29;;;;;;;72.10;43.88;;;12.50;99.90;;;;;;5016740;28;20081;-79
2022/03/24 09:28:56;;;;;;;68.53;44.22;;;12.30;99.90;;;;;;5034616;28;20076;-79
2022/03/24 09:31:22;;;;;;;71.32;43.08;;;12.40;99.90;;;;;;5016643;28;20417;-79
2022/03/24 09:33:48;;;;;;;72.05;44.35;;;12.40;99.90;;;;;;5034282;28;20477;-79
2022/03/24 09:36:14;;;;;;;71.63;44.75;;;12.40;99.90;;;;;;5016681;28;20128;-79
2022/03/24 09:38:39;;;;;;;71.45;46.03;;;12.60;99.90;;;;;;5034483;28;20421;-79
2022/03/24 09:41:06;;;;;;;75.78;46.22;;;12.60;99.90;;;;;;5034265;28;20125;-79
2022/03/24 09:43:36;;;;;;;72.65;45.83;;;12.80;99.90;;;;;;5034254;28;20045;-79
2022/03/24 09:46:02;;;;;;;71.32;45.03;;;13.10;99.90;;;;;;5034345;28;20049;-79
2022/03/24 09:48:28;;;;;;;76.38;47.58;;;13.00;99.90;;;;;;5016447;28;20124;-79
2022/03/24 09:50:54;;;;;;;80.78;47.10;;;13.00;99.90;;;;;;5034081;28;20168;-79
2022/03/24 09:53:20;;;;;;;72.55;45.65;;;12.90;99.90;;;;;;5033757;28;20095;-79
2022/03/24 09:55:50;;;;;;;76.38;45.33;;;13.00;99.90;;;;;;5016240;28;20057;-79
2022/03/24 09:58:15;;;;;;;75.30;46.95;;;13.20;99.90;;;;;;5034210;28;20121;-79
2022/03/24 10:00:41;;;;;;;76.38;46.78;;;13.40;99.90;;;;;;5033909;28;20041;-79
2022/03/24 10:03:21;;;;;;;73.40;45.60;;;13.30;99.90;;;;;;5016337;28;20054;-79
2022/03/24 10:06:07;;;;;;;71.07;44.72;;;13.50;99.90;;;;;;5016578;28;20148;-79
2022/03/24 10:08:34;;;;;;;71.93;44.38;;;13.40;99.90;;;;;;5033818;28;20489;-79
2022/03/24 10:11:09;;;;;;;73.18;46.75;;;13.40;99.90;;;;;;5016067;28;20049;-79
2022/03/24 10:13:45;;;;;;;66.88;41.72;;;13.30;99.90;;;;;;5032837;28;20097;-79
2022/03/24 10:16:31;;;;;;;71.75;43.67;;;13.50;99.90;;;;;;5016517;28;20055;-79
2022/03/24 10:18:58;;;;;;;75.18;45.35;;;13.60;99.90;;;;;;5015952;28;20396;-79
2022/03/24 10:21:23;;;;;;;73.20;43.47;;;13.70;99.90;;;;;;5015894;28;20527;-78
2022/03/24 10:23:49;;;;;;;76.10;44.88;;;13.50;99.90;;;;;;5033455;28;20049;-79
2022/03/24 10:26:15;;;;;;;78.20;45.25;;;13.60;99.90;;;;;;5033689;28;20048;-79
2022/03/24 10:28:57;;;;;;;71.90;43.15;;;13.70;99.90;;;;;;5033630;28;20045;-78
2022/03/24 10:31:33;;;;;;;75.63;43.70;;;13.90;99.90;;;;;;5033686;28;20077;-79
2022/03/24 10:33:59;;;;;;;74.60;43.80;;;14.00;99.90;;;;;;5033642;28;20045;-79
2022/03/24 10:36:26;;;;;;;73.78;43.25;;;14.10;99.90;;;;;;5033469;28;20040;-79
2022/03/24 10:38:56;;;;;;;72.68;44.15;;;14.00;99.90;;;;;;5033426;28;20052;-79
2022/03/24 10:41:30;;;;;;;76.53;45.08;;;13.90;99.90;;;;;;5015600;28;20112;-79
2022/03/24 10:43:59;;;;;;;70.65;44.42;;;13.80;99.90;;;;;;5033402;28;20039;-79
2022/03/24 10:46:28;;;;;;;68.20;42.92;;;13.90;99.90;;;;;;5033209;28;20047;-79
2022/03/24 10:48:55;;;;;;;75.43;45.35;;;14.20;99.90;;;;;;5033213;28;20045;-79
2022/03/24 10:51:24;;;;;;;72.20;43.53;;;14.30;99.90;;;;;;5033374;28;20436;-79
2022/03/24 10:53:50;;;;;;;72.93;45.17;;;14.50;99.90;;;;;;5033206;28;20123;-79
2022/03/24 10:56:33;;;;;;;69.05;44.60;;;14.40;99.90;;;;;;5032986;28;20448;-79
2022/03/24 10:59:03;;;;;;;76.68;48.50;;;14.70;99.90;;;;;;5033188;28;20446;-79
2022/03/24 11:01:31;;;;;;;71.65;45.03;;;14.70;99.90;;;;;;5033127;28;20056;-79
2022/03/24 11:03:56;;;;;;;76.47;48.00;;;14.50;99.90;;;;;;5032999;28;20493;-79
2022/03/24 11:06:23;;;;;;;73.53;46.42;;;14.30;99.90;;;;;;5033050;28;20065;-79
2022/03/24 11:08:59;;;;;;;80.63;48.42;;;14.10;99.90;;;;;;5033174;28;20052;-79
2022/03/24 11:11:25;;;;;;;77.03;48.05;;;14.40;99.90;;;;;;5033182;28;20103;-79
2022/03/24 11:13:55;;;;;;;80.70;50.22;;;14.20;99.90;;;;;;5033037;28;20123;-79
2022/03/24 11:16:29;;;;;;;85.35;49.97;;;14.00;99.90;;;;;;5033077;28;20110;-79
2022/03/24 11:18:58;;;;;;;89.78;52.95;;;14.20;99.90;;;;;;5033194;28;20042;-79
2022/03/24 11:21:39;;;;;;;85.80;50.45;;;13.80;99.90;;;;;;5033040;28;20472;-79
2022/03/24 11:24:05;;;;;;;90.38;56.30;;;14.10;99.90;;;;;;5015458;28;20041;-79
2022/03/24 11:26:34;;;;;;;87.43;52.88;;;14.00;99.90;;;;;;5018530;28;20095;-79
2022/03/24 11:29:00;;;;;;;93.28;55.03;;;14.10;99.90;;;;;;5037174;28;20034;-79
2022/03/24 11:31:31;;;;;;;87.68;55.42;;;13.90;99.90;;;;;;5019017;28;20392;-79
2022/03/24 11:34:00;;;;;;;88.45;56.17;;;13.80;99.90;;;;;;5036880;28;20083;-79
2022/03/24 11:36:28;;;;;;;92.43;56.88;;;13.80;99.90;;;;;;5036504;28;20511;-79
2022/03/24 11:38:56;;;;;;;93.65;58.40;;;13.60;99.90;;;;;;5036887;28;20100;-79
2022/03/24 11:41:43;;;;;;;88.82;57.08;;;14.00;99.90;;;;;;5018925;28;20056;-79
2022/03/24 11:44:12;;;;;;;91.43;55.00;;;13.70;99.90;;;;;;5036470;28;20045;-79
2022/03/24 11:46:48;;;;;;;91.13;57.65;;;13.60;99.90;;;;;;5036411;28;20041;-79
2022/03/24 11:49:28;;;;;;;91.55;59.33;;;13.60;99.90;;;;;;5036463;28;20046;-79
2022/03/24 11:51:56;;;;;;;88.13;53.70;;;13.30;99.90;;;;;;5018973;28;20110;-79
2022/03/24 11:54:49;;;;;;;87.88;55.28;;;13.40;99.90;;;;;;5018369;28;20092;-79
2022/03/24 11:57:21;;;;;;;89.38;53.17;;;13.40;99.90;;;;;;5018487;28;20037;-79
2022/03/24 12:00:11;;;;;;;92.10;52.87;;;13.60;99.90;;;;;;5018965;28;20053;-79
2022/03/24 12:02:37;;;;;;;92.45;52.90;;;13.40;99.90;;;;;;5036027;28;20049;-78
2022/03/24 12:05:03;;;;;;;88.25;47.65;;;13.20;99.90;;;;;;5018373;28;20053;-79
2022/03/24 12:07:29;;;;;;;89.97;50.38;;;13.90;99.90;;;;;;5018271;28;20121;-79
2022/03/24 12:09:57;;;;;;;88.72;52.53;;;13.80;99.90;;;;;;5036131;28;20060;-79
2022/03/24 12:12:24;;;;;;;94.20;54.17;;;13.60;99.90;;;;;;5035802;28;20400;-79
2022/03/24 12:14:53;;;;;;;90.68;53.25;;;13.60;99.90;;;;;;5035926;28;20508;-79
2022/03/24 12:17:31;;;;;;;90.95;53.80;;;13.60;99.90;;;;;;5035641;28;20377;-79
2022/03/24 12:20:20;;;;;;;90.10;51.15;;;13.50;99.90;;;;;;5018870;28;20064;-79
2022/03/24 12:22:46;;;;;;;88.15;51.33;;;13.50;98.10;;;;;;5035769;28;20049;-79
2022/03/24 12:25:12;;;;;;;92.63;54.03;;;13.10;97.10;;;;;;5018144;28;20111;-79
2022/03/24 12:28:01;;;;;;;92.40;54.85;;;13.10;98.30;;;;;;5035583;28;20037;-79
2022/03/24 12:30:27;;;;;;;87.45;51.10;;;13.10;99.90;;;;;;5035637;28;20067;-79
2022/03/24 12:33:10;;;;;;;95.50;55.17;;;13.30;99.90;;;;;;5035432;28;20049;-79